Bartosz Linetty

Olheiro - Legia
4 Abr 2027
Domingo
Processo

Personalidade

Adaptabilidade (2) Ambição (8) Controvérsia (6) Lealdade (12) Pressão (1) Profissionalismo (1) Espírito Esportivo (11) Temperamento (5)

Perfil

Estilo de Treinamento Democrático
Licença Continental A
Determinação 6
Gestão de Pessoas 9
Motivação 13
Disciplina 11
Satisfação no Trabalho
50%
Fadiga
0%
Função Olheiro
Salário 79.0K p/s
Contrato 14.03.2028

Desempenho

Comportamento Normal
Eficácia do Treinamento
21%
Desenvolvimento do Jogador
50%
Prevenção de Lesões
65%
Implementação Tática
35%

Eventos Recentes

Participou de uma reunião de recrutamento agora
Participou de uma reunião de recrutamento 7d atrás
Recomendou um alvo de transferência 7d atrás
Recomendou um alvo de transferência 7d atrás
Avaliou um jogador 7d atrás
Avaliou um jogador 7d atrás
Avaliou um jogador 7d atrás
Avaliou um jogador 7d atrás

Monitorando agora

95
Jogador Clube Status Habilidade Confiança Observado Última observação Último voto
Josh Tymon Swansea City Ativo 123 / 125 40% 3 28.03.2027 -
Jacques Ekomié Wrexham Ativo 134 / 135 40% 2 28.03.2027 -
Antonino Gallo Lecce Ativo 137 / 135 40% 1 28.03.2027 -
Charlie Webster Burton Albion Ativo 114 / 121 40% 2 27.03.2027 -
Bosun Lawal Stoke City Ativo 128 / 127 40% 2 27.03.2027 -
Kellen Fisher Norwich City Ativo 126 / 127 40% 1 27.03.2027 -
Dennis Cirkin Queens Park Rangers Ativo 130 / 130 40% 2 26.03.2027 -
Zak Swanson Doncaster Rovers Ativo 119 / 119 40% 2 26.03.2027 -
James Morris Leyton Orient Ativo 115 / 109 40% 2 25.03.2027 -
Kian Fitz-Jim Torino Ativo 138 / 138 40% 1 25.03.2027 -
Kristoffer Lund Birmingham Ativo 125 / 129 40% 1 25.03.2027 -
Harry Clarke Preston Ativo 134 / 134 40% 3 17.03.2027 -
Tristan Crama Millwall Ativo 123 / 130 40% 1 17.03.2027 -
Lewis Gibson Preston Ativo 123 / 124 40% 4 14.03.2027 -
Shea Charles Southampton Ativo 136 / 133 40% 1 14.03.2027 -
Kamogelo Sebelebele Orlando Pirates Ativo 109 / 125 40% 1 14.03.2027 -
Darlin Yongwa Norwich City Ativo 126 / 129 40% 5 11.03.2027 -
Luke McNally Bristol City Ativo 127 / 135 40% 2 11.03.2027 -
Welington Southampton Ativo 134 / 129 40% 1 11.03.2027 -
Derry Murkin Derby County Ativo 131 / 124 40% 4 10.03.2027 -
Kane Wilson Milton Keynes Dons Ativo 116 / 111 40% 2 07.03.2027 -
Luther Billiat Ajax Cape Town Ativo 136 / 123 40% 1 07.03.2027 -
Lewis Bate Stockport County Ativo 116 / 122 40% 1 04.03.2027 -
Georgie Gent Barnsley Ativo 114 / 118 40% 1 04.03.2027 -
Japhet Tanganga Sheffield United Ativo 129 / 128 40% 2 03.03.2027 -
Kacper Urbański Gornik Zabrze Ativo 121 / 122 40% 2 03.03.2027 -
Gustavo Mantuan Zenit Ativo 131 / 138 40% 1 25.02.2027 -
Nathan Moriah-Welsh Mansfield Town Ativo 116 / 120 40% 1 25.02.2027 -
Kaveh Mohammadi Padideh Ativo 132 / 122 40% 2 24.02.2027 -
Josh Edwards Charlton Athletic Ativo 116 / 112 40% 1 24.02.2027 -
Tyrell Malacia Leicester City Ativo 131 / 141 40% 3 22.02.2027 -
Ronnie Edwards Queens Park Rangers Ativo 134 / 134 40% 1 22.02.2027 -
Vinicius Tobias Shakhtar Ativo 134 / 139 40% 1 15.02.2027 -
Max Conway Bolton Wanderers Ativo 120 / 124 40% 1 15.02.2027 -
Darijo Grujčić Wisla Krakow Ativo 111 / 115 40% 2 13.02.2027 -
Kayne Ramsay Charlton Athletic Ativo 121 / 123 40% 1 13.02.2027 -
Max Johnston Derby County Ativo 127 / 121 40% 1 11.02.2027 -
Thierry Rendall Correia Venezia Ativo 140 / 133 40% 1 03.02.2027 -
Sondre Langås Derby County Ativo 135 / 124 40% 1 03.02.2027 -
Diego Costa Krasnodar Ativo 139 / 146 40% 1 03.02.2027 -
Issa Kaboré Wrexham Ativo 132 / 127 40% 1 02.02.2027 -
Liberato Cacace Wrexham Ativo 131 / 119 40% 1 02.02.2027 -
Jakub Czerwiński Piast Ativo 106 / 112 72% 1 02.01.2027 Aprovar
Jerome Karelse Golden Arrows Ativo 112 / 109 40% 3 31.12.2026 -
Mihael Mlinarić Zaglebie Ativo 108 / 121 40% 2 27.12.2026 -
Brayan Gil Baltika Ativo 118 / 123 40% 1 27.12.2026 -
Mahmoud Al Bloushi Al Shabab Ativo 147 / 152 40% 2 26.12.2026 -
Rumarn Burrell Queens Park Rangers Ativo 118 / 116 40% 1 26.12.2026 -
Mathias Kvistgaarden Norwich City Ativo 120 / 124 40% 1 26.12.2026 -
Evidence Makgopa Orlando Pirates Ativo 121 / 113 40% 3 20.12.2026 -
Vladislav Blănuţă Lechia Ativo 107 / 121 40% 1 20.12.2026 -
Ammar Ramadan DAC Dunajska Streda Ativo 125 / 116 40% 1 20.12.2026 -
Gabriel Charpentier Cracovia Ativo 116 / 114 40% 4 17.12.2026 -
Brayan León Mamelodi Sundowns Ativo 123 / 125 40% 3 17.12.2026 -
Richard Koné Queens Park Rangers Ativo 120 / 118 40% 1 17.12.2026 -
Percy Erasmus SuperSport United Ativo 138 / 131 40% 6 16.12.2026 -
José Barreto Fehervar Ativo 111 / 102 40% 2 16.12.2026 -
Diego Valencia Gornik Leczna Ativo 111 / 111 40% 1 16.12.2026 -
Luciano Gondou CSKA Moscow Ativo 129 / 137 40% 2 14.12.2026 -
Yorbe Vertessen Red Bull Salzburg Ativo 125 / 133 40% 2 04.12.2026 -
Hlompho Modiba Black Aces Ativo 102 / 104 40% 1 04.12.2026 -
Stav Toriel Hapoel Tel Aviv Ativo 133 / 133 40% 3 03.12.2026 -
Matheus Davó Maccabi Netanya Ativo 126 / 128 40% 1 03.12.2026 -
Wandile Duba Bidvest Wits Ativo 102 / 89 40% 1 02.12.2026 -
Franko Kovačević Ferencvaros Ativo 126 / 126 40% 1 02.12.2026 -
Camilo Durán Bloemfontein Celtic Ativo 128 / 106 40% 2 30.11.2026 -
Nabil Alioui Damac Ativo 113 / 110 40% 2 30.11.2026 -
Assad Al Hamlawi Universitatea Craiova Ativo 121 / 122 40% 4 19.11.2026 -
Gonzalo Plata Dinamo Moscow Ativo 137 / 140 40% 2 19.11.2026 -
Cheikh Sabaly Vancouver Whitecaps Ativo 125 / 117 40% 2 19.11.2026 -
Ola Brynhildsen Bodo/Glimt Ativo 129 / 115 40% 1 17.11.2026 -
Felipe Augusto Zenit Ativo 133 / 138 40% 1 17.11.2026 -
Jesus Ferreira Seattle Sounders Ativo 129 / 123 40% 2 16.11.2026 -
Etiosa Ighodaro Kaizer Chiefs Ativo 109 / 103 40% 2 14.11.2026 -
Ashkan Shojaei Siah Jamegan Ativo 125 / 137 40% 2 12.11.2026 -
Rok Zajc NK Domzale Ativo 116 / 128 40% 2 12.11.2026 -
Afimico Pululu Al-Hazem Ativo 138 / 141 40% 3 04.11.2026 -
Tomás Chancalay Minnesota United FC Ativo 121 / 111 40% 2 27.10.2026 -
Bongokuhle Hlongwane Minnesota United FC Ativo 118 / 110 40% 1 25.10.2026 -
Wessam Abou Ali Columbus Crew Ativo 120 / 133 40% 1 21.10.2026 -
Josh Sargent Toronto FC Ativo 136 / 122 40% 1 18.10.2026 -
Duncan McGuire Houston Dynamo Ativo 117 / 129 40% 1 16.10.2026 -
Ibrahim Aliyu Houston Dynamo Ativo 124 / 112 40% 1 16.10.2026 -
Rafael Navarro Colorado Rapids Ativo 117 / 136 40% 1 15.10.2026 -
Ashkan Hajsafi Gostaresh Foulad Ativo 109 / 121 40% 1 15.10.2026 -
Indiana Vassilev Philadelphia Union Ativo 114 / 104 40% 1 15.10.2026 -
Leonardo Campana New England Revolution Ativo 135 / 117 40% 1 13.10.2026 -
Alexander Aravena Portland Timbers Ativo 127 / 116 40% 1 13.10.2026 -
Kelvin Yeboah Minnesota United FC Ativo 129 / 126 40% 2 10.10.2026 -
Victor Olatunji Real Salt Lake Ativo 109 / 107 40% 1 09.10.2026 -
Liel Abada Charlotte Football Club Ativo 127 / 119 40% 1 07.10.2026 -
Dejan Joveljić Seattle Sounders Ativo 129 / 126 40% 1 07.10.2026 -
Kamil Jóźwiak Jagiellonia Ativo 108 / 111 72% 1 10.08.2026 Aprovar
Adrian Šemper Al-Fateh Ativo 127 / 139 40% 1 05.08.2026 -
Maílson Al-Taawoun Ativo 133 / 116 40% 1 05.08.2026 -